Time;durP1;ratioP1;P1;durP2;ratioP2;P2;SDS_P1;SDS_P2;PMS_P1;PMS_P2;Temp;Humidity;BMP_temperature;BMP_pressure;BME280_temperature;BME280_humidity;BME280_pressure;Samples;Min_cycle;Max_cycle;Signal;HPM_P1;HPM_P2
2022/09/28 00:01:46;;;;;;;8.98;7.07;;;8.10;99.90;;;;;;5052578;28;20057;-75
2022/09/28 00:04:14;;;;;;;9.27;7.70;;;8.10;99.90;;;;;;5066111;28;20513;-75
2022/09/28 00:06:41;;;;;;;8.30;6.72;;;8.20;99.90;;;;;;5054873;28;20049;-74
2022/09/28 00:09:08;;;;;;;14.95;7.93;;;8.20;99.90;;;;;;5064268;28;20468;-74
2022/09/28 00:11:36;;;;;;;8.82;7.70;;;8.20;99.90;;;;;;5034614;28;20497;-74
2022/09/28 00:14:06;;;;;;;10.05;8.30;;;8.20;99.90;;;;;;5065409;28;20049;-74
2022/09/28 00:16:37;;;;;;;17.02;8.75;;;8.10;99.90;;;;;;5055155;28;20509;-75
2022/09/28 00:19:05;;;;;;;12.82;8.13;;;8.00;99.90;;;;;;5065369;28;20075;-74
2022/09/28 00:21:34;;;;;;;11.32;7.88;;;8.00;99.90;;;;;;5071945;28;20045;-75
2022/09/28 00:24:12;;;;;;;9.75;7.88;;;8.00;99.90;;;;;;5039564;28;20155;-75
2022/09/28 00:26:41;;;;;;;10.82;8.15;;;7.90;99.90;;;;;;5065345;28;20509;-75
2022/09/28 00:29:15;;;;;;;10.20;8.48;;;7.90;99.90;;;;;;5070573;28;20552;-74
2022/09/28 00:31:43;;;;;;;10.38;8.50;;;7.90;99.90;;;;;;5049628;28;20041;-75
2022/09/28 00:34:10;;;;;;;12.45;7.50;;;7.80;99.90;;;;;;5050045;28;20092;-75
2022/09/28 00:36:37;;;;;;;9.93;8.82;;;7.80;99.90;;;;;;5061238;28;20049;-75
2022/09/28 00:39:06;;;;;;;12.10;7.80;;;7.70;99.90;;;;;;5066627;28;20050;-75
2022/09/28 00:41:35;;;;;;;10.05;7.75;;;7.70;99.90;;;;;;5061444;28;20053;-75
2022/09/28 00:44:40;;;;;;;10.38;8.80;;;7.70;99.90;;;;;;5068197;28;20079;-73
2022/09/28 00:47:30;;;;;;;13.07;8.35;;;7.70;99.90;;;;;;5066154;28;20048;-74
2022/09/28 00:50:02;;;;;;;10.45;8.52;;;7.70;99.90;;;;;;5036503;28;20143;-74
2022/09/28 00:52:31;;;;;;;;;;;7.70;99.90;;;;;;5049449;28;20052;-75
2022/09/28 00:55:00;;;;;;;8.95;7.50;;;7.60;99.90;;;;;;5052681;28;19924;-74
2022/09/28 00:57:28;;;;;;;9.57;8.05;;;7.60;99.90;;;;;;5067691;28;20094;-75
2022/09/28 00:59:56;;;;;;;9.57;7.78;;;7.60;99.90;;;;;;5051117;28;20135;-75
2022/09/28 01:02:24;;;;;;;9.88;8.70;;;7.60;99.90;;;;;;5032914;28;20056;-74
2022/09/28 01:04:52;;;;;;;9.02;7.47;;;7.60;99.90;;;;;;5055806;28;20052;-75
2022/09/28 01:07:20;;;;;;;8.63;7.72;;;7.60;99.90;;;;;;5057662;28;20079;-74
2022/09/28 01:09:47;;;;;;;9.98;8.27;;;7.60;99.90;;;;;;5056640;28;20055;-74
2022/09/28 01:12:15;;;;;;;10.57;7.72;;;7.50;99.90;;;;;;5039980;28;20197;-75
2022/09/28 01:14:43;;;;;;;10.40;7.55;;;7.50;99.90;;;;;;5057233;28;20049;-75
2022/09/28 01:17:15;;;;;;;10.68;8.63;;;7.40;99.90;;;;;;5032649;28;20060;-75
2022/09/28 01:20:06;;;;;;;14.73;8.13;;;7.40;99.90;;;;;;5065413;28;20496;-75
2022/09/28 01:23:01;;;;;;;11.55;8.00;;;7.30;99.90;;;;;;5050155;28;20083;-74
2022/09/28 01:25:40;;;;;;;13.02;8.75;;;7.30;99.90;;;;;;5026466;28;20049;-75
2022/09/28 01:28:12;;;;;;;22.00;9.45;;;7.20;99.90;;;;;;5041899;28;20044;-71
2022/09/28 01:30:45;;;;;;;13.48;9.02;;;7.10;99.90;;;;;;5061455;28;20069;-70
2022/09/28 01:33:19;;;;;;;12.95;8.98;;;7.00;99.90;;;;;;5050051;28;20040;-71
2022/09/28 01:35:52;;;;;;;17.48;9.50;;;7.00;99.90;;;;;;5033072;28;20053;-71
2022/09/28 01:38:22;;;;;;;14.80;8.52;;;6.90;99.90;;;;;;5048444;28;20497;-71
2022/09/28 01:40:51;;;;;;;13.02;9.20;;;6.90;99.90;;;;;;5050384;28;20049;-72
2022/09/28 01:43:24;;;;;;;13.20;8.90;;;6.80;99.90;;;;;;5060945;28;20041;-70
2022/09/28 01:45:58;;;;;;;14.55;8.82;;;6.90;99.90;;;;;;5068616;28;20051;-70
2022/09/28 01:48:32;;;;;;;11.63;9.18;;;6.90;99.90;;;;;;5051098;28;20766;-70
2022/09/28 01:51:03;;;;;;;12.48;8.63;;;6.90;99.90;;;;;;5055833;28;20563;-70
2022/09/28 01:53:36;;;;;;;13.27;8.10;;;6.80;99.90;;;;;;5099100;28;20117;-71
2022/09/28 01:56:11;;;;;;;11.15;8.40;;;6.80;99.90;;;;;;5081707;28;20151;-74
2022/09/28 01:58:46;;;;;;;11.43;7.68;;;6.80;99.90;;;;;;5048891;28;20480;-73
2022/09/28 02:01:19;;;;;;;10.05;8.10;;;6.80;99.90;;;;;;5071330;28;20143;-74
2022/09/28 02:03:49;;;;;;;13.65;7.90;;;6.80;99.90;;;;;;5057722;28;20296;-74
2022/09/28 02:06:21;;;;;;;12.10;8.20;;;6.80;99.90;;;;;;5042906;28;20045;-75
2022/09/28 02:08:53;;;;;;;12.38;7.50;;;6.80;99.90;;;;;;5050219;28;20429;-74
2022/09/28 02:11:24;;;;;;;12.55;7.30;;;6.70;99.90;;;;;;5052046;28;20147;-74
2022/09/28 02:13:58;;;;;;;22.52;8.35;;;6.70;99.90;;;;;;5048635;28;20090;-74
2022/09/28 02:16:34;;;;;;;14.77;7.75;;;6.60;99.90;;;;;;5054584;28;20049;-74
2022/09/28 02:19:03;;;;;;;13.30;7.72;;;6.60;99.90;;;;;;5037546;28;20047;-74
2022/09/28 02:21:42;;;;;;;11.57;7.30;;;6.50;99.90;;;;;;5049935;28;20051;-74
2022/09/28 02:24:16;;;;;;;14.48;7.88;;;6.60;99.90;;;;;;5051831;28;20052;-75
2022/09/28 02:26:46;;;;;;;12.10;6.82;;;6.60;99.90;;;;;;5066255;28;20127;-73
2022/09/28 02:29:14;;;;;;;13.85;7.55;;;6.60;99.90;;;;;;5060973;28;20397;-74
2022/09/28 02:31:42;;;;;;;14.98;7.00;;;6.70;99.90;;;;;;5058735;28;20068;-75
2022/09/28 02:34:09;;;;;;;12.10;7.43;;;6.70;99.90;;;;;;5055247;28;20049;-75
2022/09/28 02:36:36;;;;;;;14.93;8.55;;;6.80;99.90;;;;;;5053113;28;20133;-75
2022/09/28 02:39:04;;;;;;;13.77;6.93;;;6.80;99.90;;;;;;5070224;28;20048;-73
2022/09/28 02:41:41;;;;;;;10.40;7.35;;;7.00;99.90;;;;;;5105105;28;20051;-74
2022/09/28 02:44:19;;;;;;;7.97;6.50;;;7.10;99.90;;;;;;5060331;28;20460;-74
2022/09/28 02:46:55;;;;;;;11.45;6.88;;;7.20;99.90;;;;;;5053376;28;20044;-74
2022/09/28 02:49:34;;;;;;;14.70;7.38;;;7.30;99.90;;;;;;5065437;28;20064;-74
2022/09/28 02:52:16;;;;;;;16.27;7.03;;;7.40;99.90;;;;;;5061618;28;20045;-74
2022/09/28 02:54:59;;;;;;;12.05;7.25;;;7.50;99.90;;;;;;5070063;28;20040;-74
2022/09/28 02:57:39;;;;;;;16.60;7.25;;;7.50;99.90;;;;;;5086163;28;20052;-74
2022/09/28 03:00:14;;;;;;;13.50;6.18;;;7.50;99.90;;;;;;5068497;28;20044;-75
2022/09/28 03:02:51;;;;;;;15.70;6.50;;;7.50;99.90;;;;;;5065220;28;20139;-75
2022/09/28 03:05:29;;;;;;;9.27;5.57;;;7.50;99.90;;;;;;5087253;28;20051;-75
2022/09/28 03:07:59;;;;;;;13.25;6.18;;;7.50;99.90;;;;;;5054652;28;20135;-74
2022/09/28 03:10:35;;;;;;;10.23;6.25;;;7.40;99.90;;;;;;5054811;28;20053;-74
2022/09/28 03:13:03;;;;;;;12.70;6.20;;;7.40;99.90;;;;;;5053307;28;20124;-74
2022/09/28 03:15:34;;;;;;;12.07;6.22;;;7.30;99.90;;;;;;5067440;28;20512;-74
2022/09/28 03:18:01;;;;;;;9.90;6.03;;;7.20;99.90;;;;;;5059727;28;20068;-74
2022/09/28 03:20:30;;;;;;;12.27;6.20;;;7.20;99.90;;;;;;5049140;28;20448;-74
2022/09/28 03:22:58;;;;;;;11.15;5.63;;;7.20;99.90;;;;;;5054258;28;20053;-73
2022/09/28 03:25:25;;;;;;;9.93;6.43;;;7.20;99.90;;;;;;5062138;28;20500;-74
2022/09/28 03:27:52;;;;;;;10.57;6.93;;;7.20;99.90;;;;;;5050495;28;20037;-74
2022/09/28 03:30:21;;;;;;;11.20;6.18;;;7.20;99.90;;;;;;5069273;28;20401;-75
2022/09/28 03:32:59;;;;;;;20.10;11.75;;;7.20;99.90;;;;;;5048498;28;20037;-75
2022/09/28 03:35:28;;;;;;;18.27;7.00;;;7.20;99.90;;;;;;5059000;28;20055;-75
2022/09/28 03:37:56;;;;;;;11.80;5.82;;;7.20;99.90;;;;;;5057988;28;20531;-75
2022/09/28 03:40:25;;;;;;;12.80;6.15;;;7.20;99.90;;;;;;5052767;28;20045;-73
2022/09/28 03:42:53;;;;;;;8.50;5.53;;;7.30;99.90;;;;;;5039776;28;20151;-75
2022/09/28 03:45:20;;;;;;;8.73;5.88;;;7.40;99.90;;;;;;5055180;28;20040;-75
2022/09/28 03:47:50;;;;;;;12.65;6.68;;;7.50;99.90;;;;;;5055447;28;20056;-75
2022/09/28 03:50:20;;;;;;;8.68;6.63;;;7.60;99.90;;;;;;5072140;28;20052;-74
2022/09/28 03:52:48;;;;;;;11.60;5.55;;;7.60;99.90;;;;;;5067716;28;20578;-74
2022/09/28 03:55:16;;;;;;;9.75;6.18;;;7.70;99.90;;;;;;5041383;28;20151;-74
2022/09/28 03:57:43;;;;;;;7.85;5.57;;;7.80;99.90;;;;;;5058235;28;20045;-75
2022/09/28 04:00:11;;;;;;;9.38;5.55;;;7.90;99.90;;;;;;5035651;28;20060;-75
2022/09/28 04:02:41;;;;;;;12.70;5.90;;;7.90;99.90;;;;;;5056273;28;20052;-76
2022/09/28 04:05:09;;;;;;;9.30;6.15;;;8.00;99.90;;;;;;5071015;28;20083;-75
2022/09/28 04:07:39;;;;;;;10.52;5.88;;;8.00;99.90;;;;;;5067454;28;20535;-76
2022/09/28 04:10:07;;;;;;;14.30;5.82;;;8.00;99.90;;;;;;5057157;28;20245;-75
2022/09/28 04:12:34;;;;;;;8.68;5.40;;;8.00;99.90;;;;;;5050785;28;20072;-75
2022/09/28 04:15:01;;;;;;;9.80;5.43;;;8.00;99.90;;;;;;5056715;28;20147;-74
2022/09/28 04:17:31;;;;;;;8.73;5.47;;;8.10;99.90;;;;;;5069669;28;20058;-75
2022/09/28 04:20:02;;;;;;;11.00;6.10;;;8.10;99.90;;;;;;5045834;28;20041;-75
2022/09/28 04:22:41;;;;;;;12.85;5.93;;;8.20;99.90;;;;;;5067925;28;20053;-75
2022/09/28 04:25:20;;;;;;;8.73;5.55;;;8.30;99.90;;;;;;5065139;28;20486;-75
2022/09/28 04:30:35;;;;;;;9.45;5.65;;;8.40;99.90;;;;;;5070459;28;20044;-76
2022/09/28 04:33:05;;;;;;;10.32;5.10;;;8.30;99.90;;;;;;5053805;28;20056;-76
2022/09/28 04:35:33;;;;;;;14.30;5.80;;;8.30;99.90;;;;;;5062780;28;20091;-71
2022/09/28 04:38:03;;;;;;;19.45;6.88;;;8.40;99.90;;;;;;5065274;28;20036;-76
2022/09/28 04:40:31;;;;;;;32.35;7.47;;;8.30;99.90;;;;;;5046670;28;20441;-75
2022/09/28 04:42:58;;;;;;;18.52;6.95;;;8.40;99.90;;;;;;5057474;28;20084;-75
2022/09/28 04:45:26;;;;;;;16.42;5.88;;;8.40;99.90;;;;;;5052209;28;20175;-78
2022/09/28 04:47:56;;;;;;;9.15;5.22;;;8.50;99.90;;;;;;5059505;28;20586;-78
2022/09/28 04:50:43;;;;;;;13.32;4.97;;;8.50;99.90;;;;;;5056446;28;20049;-71
2022/09/28 04:53:19;;;;;;;12.27;5.63;;;8.60;99.90;;;;;;5057393;28;20053;-71
2022/09/28 04:55:55;;;;;;;17.08;5.53;;;8.60;99.90;;;;;;5067499;28;20044;-73
2022/09/28 04:58:23;;;;;;;16.10;7.80;;;8.70;99.90;;;;;;5070010;28;20052;-72
2022/09/28 05:00:52;;;;;;;10.07;5.88;;;8.70;99.90;;;;;;5068423;28;20048;-72
2022/09/28 05:03:42;;;;;;;10.00;5.70;;;8.70;99.90;;;;;;5065383;28;20060;-75
2022/09/28 05:06:42;;;;;;;9.25;6.13;;;8.80;99.90;;;;;;5038153;28;20055;-72
2022/09/28 05:09:11;;;;;;;6.53;4.88;;;8.80;99.90;;;;;;5056977;28;20055;-81
2022/09/28 05:11:38;;;;;;;7.68;4.70;;;8.90;99.90;;;;;;5068346;28;20488;-78
2022/09/28 05:14:11;;;;;;;;;;;8.90;99.90;;;;;;5048022;28;20504;-76
2022/09/28 05:16:40;;;;;;;6.28;4.82;;;9.00;99.90;;;;;;5063808;28;20037;-78
2022/09/28 05:19:33;;;;;;;13.30;5.15;;;9.10;99.90;;;;;;5042618;28;20126;-78
2022/09/28 05:22:04;;;;;;;9.32;4.22;;;9.00;99.90;;;;;;5049428;28;20052;-78
2022/09/28 05:24:43;;;;;;;8.15;5.30;;;9.00;99.90;;;;;;5058927;28;20352;-79
2022/09/28 05:27:11;;;;;;;8.75;5.22;;;9.00;99.90;;;;;;5051317;28;20452;-77
2022/09/28 05:29:38;;;;;;;10.73;6.30;;;9.10;99.90;;;;;;5047333;28;20525;-78
2022/09/28 05:32:24;;;;;;;17.27;6.88;;;9.10;99.90;;;;;;5058932;28;20053;-76
2022/09/28 05:35:10;;;;;;;14.30;6.03;;;9.20;99.90;;;;;;5051269;28;20044;-78
2022/09/28 05:37:41;;;;;;;16.30;7.60;;;9.20;99.90;;;;;;5062208;28;20126;-73
2022/09/28 05:40:11;;;;;;;15.77;7.38;;;9.30;99.90;;;;;;5057060;28;20459;-73
2022/09/28 05:42:39;;;;;;;12.05;6.63;;;9.30;99.90;;;;;;5063871;28;20055;-73
2022/09/28 05:45:08;;;;;;;15.63;7.32;;;9.40;99.90;;;;;;5064519;28;20102;-73
2022/09/28 05:47:41;;;;;;;9.43;6.18;;;9.50;99.90;;;;;;5066339;28;20597;-73
2022/09/28 05:50:11;;;;;;;24.88;9.07;;;9.50;99.90;;;;;;5069369;28;20223;-73
2022/09/28 05:52:39;;;;;;;11.70;6.35;;;9.60;99.90;;;;;;5067658;28;20048;-72
2022/09/28 05:55:08;;;;;;;12.07;6.20;;;9.70;99.90;;;;;;5052203;28;20096;-72
2022/09/28 05:57:37;;;;;;;10.52;6.63;;;9.70;99.90;;;;;;5055402;28;20053;-72
2022/09/28 06:00:06;;;;;;;9.65;6.22;;;9.80;99.90;;;;;;5055677;28;20075;-72
2022/09/28 06:02:40;;;;;;;9.43;6.20;;;9.90;99.90;;;;;;5065331;28;20064;-78
2022/09/28 06:05:12;;;;;;;11.65;7.63;;;9.90;99.90;;;;;;5062753;28;20044;-75
2022/09/28 06:07:40;;;;;;;7.50;5.25;;;10.00;99.90;;;;;;5053070;28;20588;-73
2022/09/28 06:10:08;;;;;;;9.18;5.30;;;10.10;99.90;;;;;;5056415;28;20140;-74
2022/09/28 06:12:42;;;;;;;7.15;4.80;;;10.10;99.90;;;;;;5073130;28;20041;-71
2022/09/28 06:15:16;;;;;;;6.32;4.70;;;10.20;99.90;;;;;;5059212;28;20048;-73
2022/09/28 06:17:44;;;;;;;9.45;5.10;;;10.20;99.90;;;;;;5066703;28;20040;-72
2022/09/28 06:20:34;;;;;;;12.57;4.47;;;10.30;99.90;;;;;;5064225;28;20076;-73
2022/09/28 06:23:28;;;;;;;9.48;5.03;;;10.30;99.90;;;;;;5050738;28;20076;-73
2022/09/28 06:25:59;;;;;;;6.85;5.05;;;10.40;99.90;;;;;;5058086;28;20067;-75
2022/09/28 06:28:28;;;;;;;11.38;5.50;;;10.50;99.90;;;;;;5057389;28;20063;-77
2022/09/28 06:30:59;;;;;;;11.57;5.63;;;10.50;99.90;;;;;;5068954;28;20056;-77
2022/09/28 06:33:26;;;;;;;10.88;6.35;;;10.60;99.90;;;;;;5036686;28;20136;-77
2022/09/28 06:35:54;;;;;;;13.60;6.28;;;10.60;99.90;;;;;;5038961;28;20049;-76
2022/09/28 06:38:21;;;;;;;14.07;6.85;;;10.60;99.90;;;;;;5066383;28;20040;-77
2022/09/28 06:40:50;;;;;;;17.30;6.75;;;10.70;99.90;;;;;;5052735;28;20045;-77
2022/09/28 06:43:17;;;;;;;15.88;7.97;;;10.80;99.90;;;;;;5069034;28;20048;-77
2022/09/28 06:46:05;;;;;;;8.57;5.50;;;10.80;99.90;;;;;;5070273;28;20127;-79
2022/09/28 06:48:38;;;;;;;8.48;4.38;;;10.90;99.90;;;;;;5070997;28;20543;-76
2022/09/28 06:51:08;;;;;;;13.65;5.13;;;10.90;99.90;;;;;;5052504;28;20430;-81
2022/09/28 06:53:55;;;;;;;5.82;3.38;;;11.00;99.90;;;;;;5070233;28;20176;-74
2022/09/28 06:56:45;;;;;;;5.80;4.30;;;11.10;99.90;;;;;;5069650;28;20043;-73
2022/09/28 06:59:12;;;;;;;6.55;3.10;;;11.40;99.90;;;;;;5070055;28;20128;-73
2022/09/28 07:01:41;;;;;;;6.93;2.95;;;11.40;99.90;;;;;;5070381;28;20044;-73
2022/09/28 07:04:20;;;;;;;6.80;3.53;;;11.50;99.90;;;;;;5071583;28;20063;-72
2022/09/28 07:07:17;;;;;;;7.63;3.22;;;11.60;99.90;;;;;;5049311;28;20627;-74
2022/09/28 07:09:46;;;;;;;3.55;2.33;;;11.70;99.90;;;;;;5052866;28;20075;-73
2022/09/28 07:12:22;;;;;;;3.67;2.33;;;11.70;99.90;;;;;;5072003;28;20064;-74
2022/09/28 07:15:12;;;;;;;2.90;2.30;;;11.70;99.90;;;;;;5067189;28;20110;-73
2022/09/28 07:17:40;;;;;;;3.65;2.30;;;11.70;99.90;;;;;;5068254;28;20080;-74
2022/09/28 07:20:08;;;;;;;5.60;1.92;;;11.70;99.90;;;;;;5050306;28;20060;-74
2022/09/28 07:22:36;;;;;;;6.82;2.45;;;11.60;99.90;;;;;;5034935;28;20067;-73
2022/09/28 07:25:04;;;;;;;2.38;2.17;;;11.50;99.90;;;;;;5049244;28;20347;-74
2022/09/28 07:27:48;;;;;;;3.72;2.22;;;11.50;99.90;;;;;;5051865;28;20045;-75
2022/09/28 07:30:38;;;;;;;5.20;2.05;;;11.50;99.90;;;;;;5052081;28;20039;-75
2022/09/28 07:33:14;;;;;;;6.38;1.98;;;11.50;99.90;;;;;;5034962;28;20078;-73
2022/09/28 07:35:55;;;;;;;3.08;2.03;;;11.50;99.90;;;;;;5071123;28;20052;-73
2022/09/28 07:38:27;;;;;;;4.90;2.10;;;11.50;99.90;;;;;;5041642;28;20490;-74
2022/09/28 07:41:12;;;;;;;2.80;1.60;;;11.50;99.90;;;;;;5005450;28;20054;-73
2022/09/28 07:43:49;;;;;;;2.22;1.90;;;11.50;99.90;;;;;;5027318;28;20048;-73
2022/09/28 07:46:16;;;;;;;3.83;1.35;;;11.40;99.90;;;;;;5030622;28;20069;-73
2022/09/28 07:48:57;;;;;;;1.98;1.42;;;11.40;99.90;;;;;;5030018;28;20057;-73
2022/09/28 07:51:34;;;;;;;2.13;1.40;;;11.40;99.90;;;;;;5031460;28;20061;-74
2022/09/28 07:54:35;;;;;;;1.80;1.70;;;11.30;99.90;;;;;;5017824;28;20053;-74
2022/09/28 07:57:22;;;;;;;4.82;1.52;;;11.30;99.90;;;;;;5011632;28;20282;-75
2022/09/28 08:00:03;;;;;;;1.73;1.60;;;11.30;99.90;;;;;;5025454;28;20429;-74
2022/09/28 08:02:47;;;;;;;1.80;1.55;;;11.30;99.90;;;;;;5026778;28;20076;-74
2022/09/28 08:05:19;;;;;;;2.00;1.40;;;11.30;99.90;;;;;;5028440;28;20473;-74
2022/09/28 08:07:48;;;;;;;3.80;1.90;;;11.20;99.90;;;;;;5009794;28;20372;-74
2022/09/28 08:10:16;;;;;;;5.05;1.88;;;11.30;99.90;;;;;;5028470;28;20387;-75
2022/09/28 08:12:47;;;;;;;3.83;2.13;;;11.30;99.90;;;;;;5029568;28;20052;-74
2022/09/28 08:15:37;;;;;;;2.97;1.55;;;11.40;99.90;;;;;;5010259;28;20052;-72
2022/09/28 08:18:16;;;;;;;1.80;1.70;;;11.40;99.90;;;;;;5021279;28;20505;-73
2022/09/28 08:23:30;;;;;;;3.55;1.45;;;11.50;99.90;;;;;;5037156;28;20053;-79
2022/09/28 08:25:57;;;;;;;1.70;1.58;;;11.50;99.90;;;;;;5028680;28;20049;-80
2022/09/28 08:28:25;;;;;;;1.70;1.60;;;11.50;99.90;;;;;;5013396;28;20068;-81
2022/09/28 08:30:59;;;;;;;2.50;1.50;;;11.50;99.90;;;;;;5028129;28;20059;-78
2022/09/28 08:33:53;;;;;;;2.03;1.50;;;11.50;99.90;;;;;;5028790;28;20053;-81
2022/09/28 08:36:56;;;;;;;3.42;1.70;;;11.50;99.90;;;;;;5026261;28;20087;-81
2022/09/28 08:39:42;;;;;;;1.60;1.50;;;11.60;99.90;;;;;;5023873;28;21385;-81
2022/09/28 08:42:35;;;;;;;2.05;1.73;;;11.70;99.90;;;;;;5029563;28;20053;-81
2022/09/28 08:45:28;;;;;;;3.38;1.92;;;11.70;99.90;;;;;;5027699;28;20073;-82
2022/09/28 08:48:43;;;;;;;2.20;1.55;;;11.70;99.90;;;;;;4988047;28;20069;-80
2022/09/28 08:51:53;;;;;;;1.70;1.60;;;11.80;99.90;;;;;;4984541;28;20050;-72
2022/09/28 08:54:47;;;;;;;4.50;2.53;;;11.90;99.90;;;;;;5026034;28;20049;-73
2022/09/28 08:57:27;;;;;;;1.65;1.55;;;11.90;99.90;;;;;;5009954;28;20049;-73
2022/09/28 08:59:57;;;;;;;2.72;1.92;;;11.90;99.90;;;;;;5025287;28;20557;-74
2022/09/28 09:02:34;;;;;;;2.28;1.42;;;11.90;99.90;;;;;;5026047;28;20686;-72
2022/09/28 09:05:18;;;;;;;5.18;1.75;;;11.90;99.90;;;;;;5043830;28;20573;-72
2022/09/28 09:08:29;;;;;;;6.03;2.42;;;11.90;99.90;;;;;;5011363;28;20041;-72
2022/09/28 09:11:08;;;;;;;1.15;1.10;;;12.00;99.90;;;;;;5013052;28;20468;-73
2022/09/28 09:14:07;;;;;;;1.73;1.25;;;12.00;99.90;;;;;;5028758;28;20140;-74
2022/09/28 09:16:48;;;;;;;2.97;1.42;;;12.00;99.90;;;;;;5041441;28;20517;-79
2022/09/28 09:19:51;;;;;;;6.15;1.77;;;12.10;99.90;;;;;;5019721;28;20053;-79
2022/09/28 09:22:56;;;;;;;1.40;1.30;;;12.20;99.90;;;;;;5029230;28;20147;-81
2022/09/28 09:25:28;;;;;;;1.27;1.17;;;12.40;99.90;;;;;;5040706;28;20118;-78
2022/09/28 09:28:34;;;;;;;2.17;1.30;;;12.40;99.90;;;;;;5043951;28;20046;-80
2022/09/28 09:31:12;;;;;;;3.03;1.60;;;12.40;99.90;;;;;;5028198;28;20053;-80
2022/09/28 09:34:00;;;;;;;2.25;1.10;;;12.30;99.90;;;;;;4998436;28;20077;-80
2022/09/28 09:36:59;;;;;;;1.17;1.17;;;12.30;99.90;;;;;;5028029;28;20048;-79
2022/09/28 09:40:28;;;;;;;1.10;1.00;;;12.50;99.90;;;;;;5046527;28;20135;-80
2022/09/28 09:43:57;;;;;;;1.70;1.20;;;12.90;99.90;;;;;;5030128;28;20049;-80
2022/09/28 09:46:51;;;;;;;4.80;1.50;;;13.10;99.90;;;;;;5017963;28;20417;-80
2022/09/28 09:49:30;;;;;;;1.33;1.23;;;13.10;99.90;;;;;;5011921;28;20053;-80
2022/09/28 09:52:04;;;;;;;1.30;0.98;;;13.00;99.90;;;;;;4996987;28;20689;-78
2022/09/28 09:54:37;;;;;;;1.58;1.30;;;12.90;99.90;;;;;;5036609;28;20096;-79
2022/09/28 09:57:11;;;;;;;3.25;1.30;;;12.90;99.90;;;;;;5025262;28;20059;-80
2022/09/28 09:59:47;;;;;;;3.33;2.08;;;12.90;99.90;;;;;;5028645;28;20058;-79
2022/09/28 10:02:28;;;;;;;1.17;1.05;;;12.80;99.90;;;;;;5026017;28;20058;-80
2022/09/28 10:05:15;;;;;;;1.40;1.30;;;12.70;99.90;;;;;;5028058;28;20053;-79
2022/09/28 10:07:49;;;;;;;4.45;1.73;;;12.60;99.90;;;;;;5027025;28;20072;-82
2022/09/28 10:10:23;;;;;;;1.90;1.43;;;12.50;99.90;;;;;;5029075;28;20050;-78
2022/09/28 10:12:54;;;;;;;2.88;1.30;;;12.40;99.90;;;;;;5010054;28;20045;-80
2022/09/28 10:15:25;;;;;;;3.25;1.48;;;12.40;99.90;;;;;;5027725;28;20107;-79
2022/09/28 10:18:20;;;;;;;1.60;1.48;;;12.50;99.90;;;;;;5027858;28;20132;-80
2022/09/28 10:21:06;;;;;;;6.05;1.75;;;12.70;99.90;;;;;;5027053;28;20038;-79
2022/09/28 10:23:57;;;;;;;1.98;1.17;;;12.90;99.90;;;;;;5017912;28;20119;-80
2022/09/28 10:26:32;;;;;;;0.98;0.98;;;13.00;99.90;;;;;;5026197;28;20064;-79
2022/09/28 10:29:02;;;;;;;4.47;1.75;;;12.90;99.90;;;;;;5028517;28;20460;-79
2022/09/28 10:31:38;;;;;;;4.15;1.00;;;12.90;99.90;;;;;;5026034;28;20084;-78
2022/09/28 10:34:15;;;;;;;1.73;0.93;;;12.90;99.90;;;;;;5022578;28;20165;-78
2022/09/28 10:36:48;;;;;;;1.10;1.00;;;12.90;99.90;;;;;;5026056;28;20045;-77
2022/09/28 10:39:31;;;;;;;7.93;1.58;;;13.10;99.90;;;;;;5039894;28;20765;-79
2022/09/28 10:42:02;;;;;;;0.85;0.80;;;13.40;99.90;;;;;;5043513;28;20040;-78
2022/09/28 10:44:32;;;;;;;4.35;1.00;;;13.70;99.90;;;;;;5007763;28;20501;-81
2022/09/28 10:47:21;;;;;;;3.08;1.70;;;13.90;99.90;;;;;;5042065;28;20514;-77
2022/09/28 10:49:52;;;;;;;3.90;1.42;;;14.10;99.90;;;;;;5026728;28;20049;-78
2022/09/28 10:52:40;;;;;;;1.40;0.90;;;14.10;99.90;;;;;;5014579;28;20069;-79
2022/09/28 10:55:29;;;;;;;1.95;0.77;;;13.90;99.90;;;;;;5030457;28;20060;-79
2022/09/28 10:57:58;;;;;;;3.70;1.15;;;13.90;99.90;;;;;;5027017;28;20038;-80
2022/09/28 11:00:32;;;;;;;0.75;0.70;;;13.90;99.90;;;;;;5030338;28;20132;-80
2022/09/28 11:03:20;;;;;;;2.03;1.13;;;13.80;99.90;;;;;;5025223;28;20057;-72
2022/09/28 11:05:56;;;;;;;3.60;0.93;;;13.70;99.90;;;;;;5033368;28;20589;-72
2022/09/28 11:08:29;;;;;;;0.88;0.88;;;13.50;99.90;;;;;;5029569;28;20085;-73
2022/09/28 11:11:08;;;;;;;1.42;0.60;;;13.40;99.90;;;;;;5030820;28;20054;-73
2022/09/28 11:13:42;;;;;;;7.63;1.58;;;13.40;99.90;;;;;;5031329;28;20045;-73
2022/09/28 11:16:24;;;;;;;2.50;0.80;;;13.30;99.90;;;;;;5013434;28;20449;-73
2022/09/28 11:18:52;;;;;;;2.28;0.98;;;13.30;99.90;;;;;;5011767;28;20081;-73
2022/09/28 11:21:26;;;;;;;1.00;1.00;;;13.20;99.90;;;;;;5004420;28;20037;-77
2022/09/28 11:24:04;;;;;;;1.80;1.10;;;13.10;99.90;;;;;;5026957;28;20049;-80
2022/09/28 11:26:38;;;;;;;6.15;1.00;;;12.90;99.90;;;;;;5029839;28;20049;-79
2022/09/28 11:29:07;;;;;;;3.15;1.13;;;12.80;99.90;;;;;;5030773;28;20041;-78
2022/09/28 11:31:53;;;;;;;1.00;0.95;;;12.70;99.90;;;;;;5028620;28;20112;-80
2022/09/28 11:34:25;;;;;;;1.10;0.98;;;12.80;99.90;;;;;;5042538;28;20517;-76
2022/09/28 11:37:30;;;;;;;1.85;0.95;;;12.80;99.90;;;;;;5049506;28;20049;-80
2022/09/28 11:40:07;;;;;;;2.47;0.95;;;12.90;99.90;;;;;;5047224;28;20053;-81
2022/09/28 11:42:48;;;;;;;1.80;1.17;;;13.00;99.90;;;;;;5047053;28;20045;-80
2022/09/28 11:45:32;;;;;;;0.82;0.82;;;13.20;99.90;;;;;;5039654;28;20049;-80
2022/09/28 11:48:02;;;;;;;1.52;1.00;;;13.30;99.90;;;;;;5030083;28;20045;-81
2022/09/28 11:50:45;;;;;;;3.08;1.00;;;13.40;99.90;;;;;;5014569;28;20045;-82
2022/09/28 11:53:21;;;;;;;3.80;1.77;;;13.50;99.90;;;;;;5025912;28;20046;-79
2022/09/28 11:55:57;;;;;;;1.95;1.30;;;13.50;99.90;;;;;;5014619;28;20077;-80
2022/09/28 11:58:30;;;;;;;5.55;1.80;;;13.50;99.90;;;;;;5030748;28;20418;-79
2022/09/28 12:01:03;;;;;;;4.35;1.33;;;13.30;99.90;;;;;;5047315;28;20064;-79
2022/09/28 12:03:50;;;;;;;3.25;1.30;;;13.20;99.90;;;;;;5041032;28;20049;-77
2022/09/28 12:06:20;;;;;;;1.80;1.13;;;13.10;99.90;;;;;;5038697;28;20472;-79
2022/09/28 12:08:55;;;;;;;1.10;0.90;;;13.10;99.90;;;;;;5036818;28;20117;-78
2022/09/28 12:11:51;;;;;;;1.52;0.80;;;13.20;99.90;;;;;;5024443;28;20041;-77
2022/09/28 12:14:28;;;;;;;1.70;0.75;;;13.30;99.90;;;;;;5025447;28;20046;-78
2022/09/28 12:17:01;;;;;;;2.15;0.90;;;13.30;99.90;;;;;;5030735;28;20397;-77
2022/09/28 12:19:32;;;;;;;1.20;1.10;;;13.30;99.90;;;;;;5024352;28;20049;-78
2022/09/28 12:22:04;;;;;;;1.00;0.93;;;13.40;99.90;;;;;;5027735;28;20041;-78
2022/09/28 12:24:37;;;;;;;;;;;13.60;99.90;;;;;;5029644;28;20064;-77
2022/09/28 12:27:14;;;;;;;1.17;1.08;;;13.80;99.90;;;;;;5030680;28;20020;-77
2022/09/28 12:29:46;;;;;;;2.00;1.90;;;14.00;99.90;;;;;;5027973;28;20538;-78
2022/09/28 12:32:23;;;;;;;4.03;1.92;;;14.10;99.90;;;;;;5029318;28;20408;-80
2022/09/28 12:34:51;;;;;;;3.10;1.10;;;14.10;99.90;;;;;;5027284;28;20540;-78
2022/09/28 12:37:33;;;;;;;1.13;0.88;;;14.10;99.90;;;;;;5029415;28;20076;-79
2022/09/28 12:40:33;;;;;;;0.98;0.82;;;14.20;99.90;;;;;;5029215;28;20166;-80
2022/09/28 12:43:27;;;;;;;0.93;0.85;;;14.40;99.90;;;;;;5021725;28;20053;-80
2022/09/28 12:46:09;;;;;;;2.53;0.80;;;14.50;99.90;;;;;;5029836;28;20740;-79
2022/09/28 12:48:50;;;;;;;3.72;1.15;;;14.40;99.90;;;;;;5020949;28;20070;-81
2022/09/28 12:51:34;;;;;;;1.20;1.08;;;14.20;99.90;;;;;;5027946;28;20071;-80
2022/09/28 12:54:15;;;;;;;2.25;1.30;;;14.00;99.90;;;;;;5027327;28;20096;-80
2022/09/28 12:56:54;;;;;;;1.83;1.10;;;13.80;99.90;;;;;;5024212;28;20050;-76
2022/09/28 12:59:27;;;;;;;3.20;1.85;;;13.60;99.90;;;;;;5025059;28;20137;-79
2022/09/28 13:02:26;;;;;;;1.67;1.38;;;13.40;99.90;;;;;;5026886;28;20033;-79
2022/09/28 13:05:19;;;;;;;1.50;1.40;;;13.20;99.90;;;;;;5026268;28;20115;-80
2022/09/28 13:07:53;;;;;;;2.25;2.05;;;13.10;99.90;;;;;;5027038;28;20073;-79
2022/09/28 13:10:32;;;;;;;2.72;1.80;;;13.10;99.90;;;;;;5029045;28;20045;-78
2022/09/28 13:13:28;;;;;;;6.40;3.47;;;13.20;99.90;;;;;;5028560;28;20053;-77
2022/09/28 13:16:05;;;;;;;7.43;5.47;;;13.50;99.90;;;;;;5042921;28;20053;-71
2022/09/28 13:18:38;;;;;;;3.00;1.58;;;13.80;99.90;;;;;;5021475;28;20049;-79
2022/09/28 13:21:25;;;;;;;2.55;1.75;;;13.90;99.90;;;;;;5028052;28;20390;-81
2022/09/28 13:23:56;;;;;;;8.15;2.85;;;13.80;99.90;;;;;;5029955;28;20042;-79
2022/09/28 13:26:28;;;;;;;1.85;1.75;;;13.80;99.90;;;;;;5017401;28;20085;-78
2022/09/28 13:29:03;;;;;;;4.32;1.70;;;13.60;99.90;;;;;;5025742;28;20595;-80
2022/09/28 13:31:33;;;;;;;2.38;1.75;;;13.40;99.90;;;;;;5026651;28;20057;-80
2022/09/28 13:34:03;;;;;;;3.28;2.03;;;13.20;99.90;;;;;;5025171;28;20111;-72
2022/09/28 13:36:41;;;;;;;3.00;2.42;;;13.00;99.90;;;;;;5023285;28;20127;-71
2022/09/28 13:39:35;;;;;;;2.20;2.00;;;12.80;99.90;;;;;;5026421;28;20045;-71
2022/09/28 13:42:08;;;;;;;2.95;2.17;;;12.60;99.90;;;;;;5028538;28;20149;-73